createdAt,value
2023-04-09T00:00:17.807Z,22.55
2023-04-09T00:01:06.117Z,21.75
2023-04-09T00:01:53.113Z,22.10
2023-04-09T00:02:40.355Z,24.25
2023-04-09T00:03:27.606Z,23.00
2023-04-09T00:04:14.709Z,21.95
2023-04-09T00:05:02.689Z,23.38
2023-04-09T00:05:49.703Z,23.38
2023-04-09T00:06:36.620Z,22.73
2023-04-09T00:07:23.538Z,23.40
2023-04-09T00:08:11.045Z,22.83
2023-04-09T00:08:58.224Z,23.12
2023-04-09T00:09:45.174Z,26.05
2023-04-09T00:10:32.190Z,24.45
2023-04-09T00:11:19.182Z,23.12
2023-04-09T00:12:06.240Z,22.83
2023-04-09T00:12:53.190Z,23.87
2023-04-09T00:13:40.259Z,21.70
2023-04-09T00:14:27.300Z,23.38
2023-04-09T00:15:24.343Z,23.38
2023-04-09T00:16:17.950Z,22.30
2023-04-09T00:17:04.908Z,22.75
2023-04-09T00:17:52.675Z,22.50
2023-04-09T00:18:39.670Z,22.52
2023-04-09T00:19:26.877Z,22.58
2023-04-09T00:20:15.199Z,22.73
2023-04-09T00:21:02.595Z,23.38
2023-04-09T00:21:49.673Z,23.38
2023-04-09T00:22:36.779Z,24.08
2023-04-09T00:23:23.802Z,22.02
2023-04-09T00:24:10.982Z,23.60
2023-04-09T00:24:58.010Z,22.87
2023-04-09T00:25:44.979Z,23.08
2023-04-09T00:26:32.201Z,22.58
2023-04-09T00:27:19.349Z,22.92
2023-04-09T00:28:06.310Z,22.50
2023-04-09T00:28:53.544Z,23.12
2023-04-09T00:29:40.699Z,22.42
2023-04-09T00:30:31.093Z,23.52
2023-04-09T00:31:19.444Z,22.55
2023-04-09T00:32:07.936Z,22.48
2023-04-09T00:32:54.945Z,21.92
2023-04-09T00:33:42.300Z,22.62
2023-04-09T00:34:29.201Z,22.05
2023-04-09T00:35:17.777Z,21.48
2023-04-09T00:36:05.131Z,22.10
2023-04-09T00:36:52.195Z,22.40
2023-04-09T00:37:39.300Z,22.50
2023-04-09T00:38:26.273Z,23.60
2023-04-09T00:39:13.202Z,22.87
2023-04-09T00:40:00.494Z,22.73
2023-04-09T00:40:51.480Z,22.13
2023-04-09T00:41:38.399Z,21.85
2023-04-09T00:42:26.288Z,21.87
2023-04-09T00:43:13.178Z,22.45
2023-04-09T00:44:00.326Z,22.20
2023-04-09T00:44:47.287Z,23.10
2023-04-09T00:45:34.402Z,22.23
2023-04-09T00:46:21.531Z,22.92
2023-04-09T00:47:08.584Z,23.20
2023-04-09T00:47:55.934Z,23.02
2023-04-09T00:48:42.991Z,24.63
2023-04-09T00:49:30.039Z,23.85
2023-04-09T00:50:18.136Z,23.62
2023-04-09T00:51:05.210Z,23.20
2023-04-09T00:51:52.614Z,21.98
2023-04-09T00:52:39.888Z,23.00
2023-04-09T00:53:26.881Z,22.80
2023-04-09T00:54:14.218Z,21.73
2023-04-09T00:55:01.938Z,22.50
2023-04-09T00:55:48.916Z,23.35
2023-04-09T00:56:36.728Z,22.62
2023-04-09T00:57:23.679Z,22.00
2023-04-09T00:58:10.723Z,22.58
2023-04-09T00:58:57.639Z,22.08
2023-04-09T00:59:45.025Z,23.67
2023-04-09T01:00:32.030Z,21.70
2023-04-09T01:01:19.120Z,22.58
2023-04-09T01:02:06.198Z,22.37
2023-04-09T01:02:54.169Z,22.58
2023-04-09T01:03:42.326Z,23.87
2023-04-09T01:04:29.338Z,22.17
2023-04-09T01:05:16.425Z,22.02
2023-04-09T01:06:08.948Z,22.02
2023-04-09T01:06:59.779Z,24.27
2023-04-09T01:08:08.324Z,22.80
2023-04-09T01:09:02.387Z,21.60
2023-04-09T01:10:19.432Z,21.20
2023-04-09T01:11:28.448Z,22.58
2023-04-09T01:12:26.676Z,21.25
2023-04-09T01:13:39.369Z,21.08
2023-04-09T01:14:39.627Z,21.65
2023-04-09T01:15:30.197Z,16.65
2023-04-09T01:17:06.805Z,20.55
2023-04-09T01:18:30.477Z,21.25
2023-04-09T01:19:49.235Z,20.15
2023-04-09T01:20:41.040Z,21.75
2023-04-09T01:21:32.234Z,20.90
2023-04-09T01:22:50.594Z,23.25
2023-04-09T01:24:08.255Z,20.15
2023-04-09T01:25:12.068Z,20.70
2023-04-09T01:26:30.620Z,21.90
2023-04-09T01:27:18.144Z,22.48
2023-04-09T01:28:34.609Z,22.45
2023-04-09T01:29:24.075Z,22.80
2023-04-09T01:30:11.493Z,22.33
2023-04-09T01:31:02.289Z,22.58
2023-04-09T01:31:49.944Z,23.62
2023-04-09T01:32:39.345Z,21.90
2023-04-09T01:33:26.962Z,22.23
2023-04-09T01:34:14.694Z,22.83
2023-04-09T01:35:01.960Z,22.83
2023-04-09T01:35:50.136Z,23.58
2023-04-09T01:36:37.502Z,23.87
2023-04-09T01:37:24.446Z,22.33
2023-04-09T01:38:11.813Z,22.52
2023-04-09T01:39:01.045Z,24.20
2023-04-09T01:39:48.126Z,23.67
2023-04-09T01:40:35.116Z,23.95
2023-04-09T01:41:22.997Z,25.17
2023-04-09T01:42:11.503Z,25.02
2023-04-09T01:42:58.758Z,23.98
2023-04-09T01:43:46.193Z,24.05
2023-04-09T01:44:33.498Z,24.40
2023-04-09T01:45:21.526Z,24.15
2023-04-09T01:46:10.339Z,23.80
2023-04-09T01:46:59.113Z,23.17
2023-04-09T01:47:46.194Z,23.23
2023-04-09T01:48:34.061Z,23.17
2023-04-09T01:49:21.206Z,23.95
2023-04-09T01:50:08.503Z,23.55
2023-04-09T01:50:55.850Z,23.92
2023-04-09T01:51:43.006Z,22.60
2023-04-09T01:52:30.099Z,22.27
2023-04-09T01:53:17.089Z,22.13
2023-04-09T01:54:04.889Z,21.85
2023-04-09T01:54:51.885Z,21.67
2023-04-09T01:55:39.675Z,21.08
2023-04-09T01:56:27.416Z,21.25
2023-04-09T01:57:14.347Z,22.30
2023-04-09T01:58:01.260Z,21.83
2023-04-09T01:58:48.235Z,22.08
2023-04-09T01:59:35.223Z,22.05
2023-04-09T02:00:22.327Z,22.23
2023-04-09T02:01:21.339Z,22.98
2023-04-09T02:02:17.952Z,23.98
2023-04-09T02:03:14.002Z,24.48
2023-04-09T02:04:06.043Z,22.92
2023-04-09T02:04:53.947Z,23.75
2023-04-09T02:05:52.962Z,23.42
2023-04-09T02:06:45.189Z,23.58
2023-04-09T02:07:52.035Z,25.45
2023-04-09T02:08:39.221Z,23.48
2023-04-09T02:09:28.925Z,23.20
2023-04-09T02:10:17.644Z,23.07
2023-04-09T02:11:06.975Z,24.08
2023-04-09T02:11:54.321Z,23.38
2023-04-09T02:12:44.837Z,24.48
2023-04-09T02:13:33.038Z,23.80
2023-04-09T02:14:21.480Z,24.87
2023-04-09T02:15:09.079Z,22.80
2023-04-09T02:15:57.043Z,24.50
2023-04-09T02:16:44.018Z,22.85
2023-04-09T02:17:30.970Z,22.85
2023-04-09T02:18:36.256Z,23.55
2023-04-09T02:19:23.210Z,22.90
2023-04-09T02:20:10.528Z,23.00
2023-04-09T02:20:58.847Z,22.62
2023-04-09T02:21:46.652Z,24.17
2023-04-09T02:22:33.589Z,22.67
2023-04-09T02:23:20.827Z,23.85
2023-04-09T02:24:07.884Z,23.60
2023-04-09T02:24:54.870Z,23.55
2023-04-09T02:25:41.897Z,22.23
2023-04-09T02:26:28.821Z,22.00
2023-04-09T02:27:16.508Z,23.08
2023-04-09T02:28:03.480Z,22.98
2023-04-09T02:28:51.159Z,24.25
2023-04-09T02:29:39.951Z,22.48
2023-04-09T02:30:26.825Z,22.30
2023-04-09T02:31:14.016Z,23.17
2023-04-09T02:32:01.298Z,23.02
2023-04-09T02:32:48.307Z,23.40
2023-04-09T02:33:35.480Z,22.98
2023-04-09T02:34:23.476Z,23.52
2023-04-09T02:35:10.500Z,24.02
2023-04-09T02:35:57.480Z,23.27
2023-04-09T02:36:44.443Z,24.90
2023-04-09T02:37:31.549Z,24.98
2023-04-09T02:38:18.769Z,23.55
2023-04-09T02:39:05.836Z,23.08
2023-04-09T02:39:52.819Z,23.52
2023-04-09T02:40:41.619Z,24.85
2023-04-09T02:41:28.547Z,23.77
2023-04-09T02:42:15.560Z,23.23
2023-04-09T02:43:02.547Z,23.20
2023-04-09T02:43:49.510Z,22.40
2023-04-09T02:44:36.510Z,22.98
2023-04-09T02:45:23.416Z,21.77
2023-04-09T02:46:10.527Z,23.60
2023-04-09T02:46:57.787Z,22.50
2023-04-09T02:47:44.926Z,22.33
2023-04-09T02:48:32.084Z,23.23
2023-04-09T02:49:19.272Z,20.90
2023-04-09T02:51:50.944Z,21.35
2023-04-09T02:52:37.928Z,20.88
2023-04-09T02:53:25.592Z,21.55
2023-04-09T02:54:12.563Z,20.77
2023-04-09T02:54:59.604Z,21.25
2023-04-09T02:55:46.646Z,22.75
2023-04-09T02:56:33.852Z,21.35
2023-04-09T02:57:20.911Z,20.58
2023-04-09T02:58:07.942Z,22.02
2023-04-09T02:58:55.639Z,22.50
2023-04-09T02:59:42.692Z,21.85
2023-04-09T03:00:29.593Z,21.35
2023-04-09T03:01:16.501Z,21.17
2023-04-09T03:02:03.596Z,20.33
2023-04-09T03:02:51.004Z,21.52
2023-04-09T03:03:40.352Z,21.12
2023-04-09T03:04:27.446Z,21.55
2023-04-09T03:05:14.391Z,21.98
2023-04-09T03:06:01.363Z,22.40
2023-04-09T03:06:48.604Z,20.73
2023-04-09T03:07:35.633Z,21.27
2023-04-09T03:08:22.593Z,22.45
2023-04-09T03:09:09.546Z,21.80
2023-04-09T03:09:56.556Z,20.75
2023-04-09T03:10:43.675Z,21.83
2023-04-09T03:11:30.614Z,20.92
2023-04-09T03:12:17.708Z,21.30
2023-04-09T03:13:04.620Z,21.30
2023-04-09T03:13:51.780Z,21.87
2023-04-09T03:14:38.714Z,21.75
2023-04-09T03:15:25.886Z,23.00
2023-04-09T03:16:12.875Z,22.25
2023-04-09T03:17:00.021Z,22.02
2023-04-09T03:17:47.273Z,21.92
2023-04-09T03:18:34.235Z,23.42
2023-04-09T03:19:21.307Z,22.33
2023-04-09T03:20:08.754Z,21.20
2023-04-09T03:20:55.805Z,20.75
2023-04-09T03:21:43.233Z,21.58
2023-04-09T03:22:30.442Z,22.30
2023-04-09T03:23:17.566Z,21.85
2023-04-09T03:25:44.056Z,19.73
2023-04-09T03:26:36.359Z,21.25
2023-04-09T03:27:23.789Z,19.30
2023-04-09T03:28:11.012Z,19.83
2023-04-09T03:28:58.080Z,19.37
2023-04-09T03:29:45.025Z,19.67
2023-04-09T03:30:32.080Z,20.90
2023-04-09T03:31:19.450Z,20.67
2023-04-09T03:32:06.611Z,19.45
2023-04-09T03:32:53.620Z,20.40
2023-04-09T03:33:40.696Z,19.67
2023-04-09T03:34:27.733Z,19.65
2023-04-09T03:35:14.789Z,20.27
2023-04-09T03:36:01.869Z,19.20
2023-04-09T03:36:49.141Z,20.98
2023-04-09T03:37:36.336Z,20.85
2023-04-09T03:38:23.333Z,19.62
2023-04-09T03:39:10.370Z,20.10
2023-04-09T03:39:57.351Z,19.98
2023-04-09T03:40:44.308Z,20.05
2023-04-09T03:41:31.393Z,20.83
2023-04-09T03:42:18.430Z,21.45
2023-04-09T03:43:05.576Z,20.27
2023-04-09T03:43:52.610Z,20.33
2023-04-09T03:44:39.599Z,19.77
2023-04-09T03:45:26.587Z,20.73
2023-04-09T03:46:17.097Z,20.73
2023-04-09T03:47:04.056Z,20.20
2023-04-09T03:47:51.598Z,20.42
2023-04-09T03:48:38.590Z,19.87
2023-04-09T03:49:25.729Z,20.20
2023-04-09T03:50:13.091Z,19.77
2023-04-09T03:51:00.030Z,19.33
2023-04-09T03:51:47.126Z,18.83
2023-04-09T03:52:34.216Z,19.50
2023-04-09T03:53:21.478Z,19.33
2023-04-09T03:54:08.499Z,18.85
2023-04-09T03:54:55.697Z,18.98
2023-04-09T03:55:42.774Z,20.48
2023-04-09T03:56:29.908Z,19.58
2023-04-09T03:57:16.985Z,18.90
2023-04-09T03:58:03.987Z,19.92
2023-04-09T03:58:51.194Z,19.23
2023-04-09T03:59:38.546Z,18.80
2023-04-09T04:00:25.591Z,20.08
2023-04-09T04:01:12.550Z,18.40
2023-04-09T04:01:59.592Z,18.45
2023-04-09T04:02:46.865Z,19.25
2023-04-09T04:03:34.396Z,19.30
2023-04-09T04:04:23.754Z,18.20
2023-04-09T04:05:11.960Z,18.02
2023-04-09T04:06:03.243Z,18.83
2023-04-09T04:06:50.294Z,19.48
2023-04-09T04:07:37.411Z,18.83
2023-04-09T04:08:24.475Z,19.15
2023-04-09T04:09:11.580Z,19.30
2023-04-09T04:09:58.681Z,19.75
2023-04-09T04:10:45.814Z,18.98
2023-04-09T04:11:33.055Z,18.37
2023-04-09T04:12:20.234Z,19.23
2023-04-09T04:13:08.881Z,18.95
2023-04-09T04:13:56.276Z,18.40
2023-04-09T04:14:43.256Z,18.62
2023-04-09T04:15:30.535Z,18.05
2023-04-09T04:16:17.555Z,18.48
2023-04-09T04:17:04.753Z,18.50
2023-04-09T04:17:51.688Z,18.60
2023-04-09T04:18:38.802Z,18.85
2023-04-09T04:19:25.963Z,18.73
2023-04-09T04:20:13.134Z,17.83
2023-04-09T04:21:00.210Z,18.02
2023-04-09T04:21:47.202Z,18.40
2023-04-09T04:22:35.802Z,17.98
2023-04-09T04:23:22.849Z,18.52
2023-04-09T04:24:09.887Z,17.73
2023-04-09T04:24:56.928Z,18.48
2023-04-09T04:25:44.153Z,20.08
2023-04-09T04:26:31.288Z,18.87
2023-04-09T04:27:18.384Z,19.45
2023-04-09T04:28:05.511Z,18.45
2023-04-09T04:28:52.717Z,17.77
2023-04-09T04:29:39.902Z,18.73
2023-04-09T04:30:26.891Z,17.70
2023-04-09T04:31:14.031Z,18.67
2023-04-09T04:32:01.107Z,18.77
2023-04-09T04:32:48.963Z,18.33
2023-04-09T04:33:36.134Z,18.67
2023-04-09T04:34:23.214Z,18.05
2023-04-09T04:35:10.336Z,18.30
2023-04-09T04:36:08.407Z,18.10
2023-04-09T04:36:55.655Z,18.33
2023-04-09T04:37:42.996Z,18.95
2023-04-09T04:38:30.028Z,18.00
2023-04-09T04:39:17.067Z,17.75
2023-04-09T04:40:05.694Z,18.23
2023-04-09T04:40:52.746Z,18.15
2023-04-09T04:41:39.888Z,17.90
2023-04-09T04:42:26.817Z,18.58
2023-04-09T04:43:13.897Z,17.42
2023-04-09T04:44:00.896Z,17.80
2023-04-09T04:44:48.024Z,18.00
2023-04-09T04:45:35.121Z,18.42
2023-04-09T04:46:22.281Z,18.08
2023-04-09T04:47:09.445Z,17.37
2023-04-09T04:47:56.545Z,17.90
2023-04-09T04:48:43.598Z,17.50
2023-04-09T04:49:31.848Z,17.02
2023-04-09T04:50:18.946Z,17.30
2023-04-09T04:51:06.026Z,18.08
2023-04-09T04:51:52.953Z,17.50
2023-04-09T04:52:40.765Z,17.77
2023-04-09T04:53:28.015Z,18.05
2023-04-09T04:54:15.213Z,17.33
2023-04-09T04:55:02.297Z,18.12
2023-04-09T04:55:49.354Z,17.55
2023-04-09T04:56:36.285Z,17.35
2023-04-09T04:57:23.389Z,17.00
2023-04-09T04:58:10.471Z,17.27
2023-04-09T04:58:57.494Z,17.08
2023-04-09T04:59:44.749Z,17.92
2023-04-09T05:00:32.404Z,17.40
2023-04-09T05:01:19.529Z,17.27
2023-04-09T05:02:07.621Z,18.12
2023-04-09T05:02:55.077Z,17.95
2023-04-09T05:03:42.262Z,17.95
2023-04-09T05:04:29.516Z,17.83
2023-04-09T05:05:16.925Z,18.08
2023-04-09T05:06:04.085Z,17.83
2023-04-09T05:06:51.281Z,17.45
2023-04-09T05:07:38.212Z,18.35
2023-04-09T05:08:25.306Z,17.05
2023-04-09T05:09:12.540Z,17.87
2023-04-09T05:09:59.526Z,18.15
2023-04-09T05:10:47.343Z,18.70
2023-04-09T05:11:34.484Z,17.83
2023-04-09T05:12:21.438Z,18.55
2023-04-09T05:13:08.352Z,18.02
2023-04-09T05:13:55.342Z,19.05
2023-04-09T05:14:42.325Z,17.90
2023-04-09T05:15:29.304Z,18.20
2023-04-09T05:16:18.508Z,18.30
2023-04-09T05:17:05.554Z,18.40
2023-04-09T05:17:53.030Z,19.10
2023-04-09T05:18:40.033Z,19.23
2023-04-09T05:19:27.115Z,18.17
2023-04-09T05:20:14.131Z,18.27
2023-04-09T05:21:01.131Z,18.42
2023-04-09T05:21:48.835Z,18.10
2023-04-09T05:22:36.657Z,18.25
2023-04-09T05:23:23.901Z,19.05
2023-04-09T05:24:11.403Z,19.30
2023-04-09T05:24:58.348Z,18.17
2023-04-09T05:25:45.726Z,18.52
2023-04-09T05:26:32.744Z,18.25
2023-04-09T05:27:21.197Z,18.50
2023-04-09T05:28:09.005Z,20.00
2023-04-09T05:28:56.754Z,20.45
2023-04-09T05:29:44.025Z,19.85
2023-04-09T05:30:31.507Z,19.20
2023-04-09T05:31:19.193Z,18.70
2023-04-09T05:32:07.277Z,18.37
2023-04-09T05:32:54.477Z,18.02
2023-04-09T05:33:42.526Z,18.08
2023-04-09T05:34:29.773Z,19.27
2023-04-09T05:35:16.790Z,19.17
2023-04-09T05:36:04.054Z,18.48
2023-04-09T05:36:51.386Z,19.50
2023-04-09T05:37:38.421Z,19.17
2023-04-09T05:38:25.425Z,17.25
2023-04-09T05:39:12.507Z,17.73
2023-04-09T05:39:59.586Z,18.67
2023-04-09T05:40:46.623Z,18.05
2023-04-09T05:41:33.997Z,19.00
2023-04-09T05:42:21.088Z,17.98
2023-04-09T05:43:08.202Z,19.00
2023-04-09T05:43:55.256Z,19.10
2023-04-09T05:44:42.229Z,18.77
2023-04-09T05:45:29.477Z,18.12
2023-04-09T05:46:16.524Z,18.15
2023-04-09T05:47:03.708Z,17.42
2023-04-09T05:47:51.244Z,17.55
2023-04-09T05:48:38.512Z,18.10
2023-04-09T05:49:26.119Z,17.12
2023-04-09T05:50:13.429Z,18.20
2023-04-09T05:51:01.090Z,18.37
2023-04-09T05:51:48.483Z,18.80
2023-04-09T05:52:35.600Z,18.65
2023-04-09T05:53:22.895Z,19.40
2023-04-09T05:54:10.440Z,20.20
2023-04-09T05:54:57.555Z,21.95
2023-04-09T05:55:44.689Z,20.75
2023-04-09T05:56:31.602Z,23.87
2023-04-09T05:57:18.822Z,23.80
2023-04-09T05:58:05.810Z,23.83
2023-04-09T05:58:53.068Z,27.10
2023-04-09T05:59:39.994Z,32.47
2023-04-09T06:00:27.212Z,29.55
2023-04-09T06:01:14.382Z,28.67
2023-04-09T06:02:01.482Z,33.50
2023-04-09T06:02:48.638Z,33.10
2023-04-09T06:03:35.795Z,36.42
2023-04-09T06:04:23.172Z,36.85
2023-04-09T06:05:10.384Z,36.20
2023-04-09T06:05:57.727Z,30.48
2023-04-09T06:06:44.924Z,31.40
2023-04-09T06:07:32.339Z,31.67
2023-04-09T06:08:19.699Z,29.00
2023-04-09T06:09:06.731Z,28.12
2023-04-09T06:09:55.248Z,27.75
2023-04-09T06:10:42.288Z,29.65
2023-04-09T06:11:29.414Z,28.23
2023-04-09T06:12:16.767Z,27.30
2023-04-09T06:13:03.796Z,27.35
2023-04-09T06:13:51.324Z,26.60
2023-04-09T06:14:38.460Z,26.70
2023-04-09T06:15:25.467Z,25.73
2023-04-09T06:16:12.482Z,26.27
2023-04-09T06:17:00.227Z,24.02
2023-04-09T06:17:47.283Z,24.23
2023-04-09T06:18:34.909Z,25.47
2023-04-09T06:19:22.631Z,23.95
2023-04-09T06:20:10.223Z,22.13
2023-04-09T06:21:08.179Z,24.33
2023-04-09T06:21:55.269Z,23.87
2023-04-09T06:22:42.308Z,22.80
2023-04-09T06:23:29.323Z,21.55
2023-04-09T06:24:16.631Z,23.20
2023-04-09T06:25:03.869Z,22.15
2023-04-09T06:25:50.948Z,22.33
2023-04-09T06:26:38.002Z,22.98
2023-04-09T06:27:25.088Z,23.08
2023-04-09T06:28:12.519Z,22.87
2023-04-09T06:28:59.569Z,22.15
2023-04-09T06:29:46.579Z,22.58
2023-04-09T06:30:33.690Z,23.42
2023-04-09T06:31:21.534Z,21.65
2023-04-09T06:32:08.581Z,20.80
2023-04-09T06:32:55.817Z,21.95
2023-04-09T06:33:42.985Z,21.33
2023-04-09T06:34:30.090Z,22.23
2023-04-09T06:35:17.178Z,23.38
2023-04-09T06:36:04.713Z,22.90
2023-04-09T06:36:51.826Z,21.15
2023-04-09T06:37:38.848Z,22.05
2023-04-09T06:38:25.866Z,20.40
2023-04-09T06:39:13.356Z,20.05
2023-04-09T06:40:01.525Z,19.95
2023-04-09T06:40:48.877Z,19.37
2023-04-09T06:41:35.990Z,19.67
2023-04-09T06:42:23.075Z,18.62
2023-04-09T06:43:10.285Z,18.58
2023-04-09T06:43:57.457Z,19.92
2023-04-09T06:44:44.518Z,19.62
2023-04-09T06:45:32.718Z,18.20
2023-04-09T06:46:21.501Z,20.08
2023-04-09T06:47:09.383Z,18.42
2023-04-09T06:47:56.407Z,18.77
2023-04-09T06:48:45.175Z,18.87
2023-04-09T06:49:32.156Z,17.92
2023-04-09T06:50:19.357Z,17.40
2023-04-09T06:51:07.760Z,18.33
2023-04-09T06:51:54.795Z,17.83
2023-04-09T06:52:42.496Z,16.95
2023-04-09T06:53:29.728Z,18.60
2023-04-09T06:54:16.991Z,17.92
2023-04-09T06:55:04.126Z,19.00
2023-04-09T06:55:51.648Z,18.23
2023-04-09T06:56:38.596Z,17.80
2023-04-09T06:57:26.730Z,19.20
2023-04-09T06:58:13.681Z,19.45
2023-04-09T06:59:00.668Z,18.73
2023-04-09T06:59:47.646Z,19.70
2023-04-09T07:00:34.758Z,19.65
2023-04-09T07:01:21.994Z,19.83
2023-04-09T07:02:09.549Z,19.75
2023-04-09T07:02:57.138Z,18.37
2023-04-09T07:03:44.519Z,18.45
2023-04-09T07:04:31.864Z,18.80
2023-04-09T07:05:19.318Z,18.65
2023-04-09T07:06:06.548Z,18.67
2023-04-09T07:06:55.156Z,18.00
2023-04-09T07:07:42.275Z,18.77
2023-04-09T07:08:29.386Z,18.85
2023-04-09T07:09:17.919Z,18.37
2023-04-09T07:10:06.497Z,18.33
2023-04-09T07:10:53.685Z,19.27
2023-04-09T07:11:40.737Z,18.25
2023-04-09T07:12:32.387Z,18.85
2023-04-09T07:13:19.358Z,19.08
2023-04-09T07:14:06.628Z,18.48
2023-04-09T07:14:53.715Z,18.37
2023-04-09T07:15:42.500Z,19.45
2023-04-09T07:16:29.698Z,18.75
2023-04-09T07:17:16.735Z,18.77
2023-04-09T07:18:04.009Z,18.15
2023-04-09T07:18:51.325Z,18.20
2023-04-09T07:19:38.396Z,18.00
2023-04-09T07:20:25.765Z,17.80
2023-04-09T07:21:12.954Z,18.20
2023-04-09T07:22:00.042Z,17.77
2023-04-09T07:22:47.175Z,17.02
2023-04-09T07:23:37.495Z,17.48
2023-04-09T07:24:24.716Z,17.17
2023-04-09T07:25:12.057Z,17.77
2023-04-09T07:25:59.116Z,18.12
2023-04-09T07:26:46.112Z,18.02
2023-04-09T07:27:33.535Z,17.75
2023-04-09T07:28:20.518Z,17.58
2023-04-09T07:29:08.232Z,16.35
2023-04-09T07:29:57.093Z,16.83
2023-04-09T07:30:46.527Z,17.65
2023-04-09T07:31:35.307Z,18.05
2023-04-09T07:32:23.671Z,16.60
2023-04-09T07:33:10.847Z,17.67
2023-04-09T07:33:57.783Z,17.65
2023-04-09T07:34:46.040Z,17.55
2023-04-09T07:35:34.925Z,18.17
2023-04-09T07:36:22.008Z,18.02
2023-04-09T07:37:09.307Z,16.87
2023-04-09T07:37:56.399Z,17.08
2023-04-09T07:38:43.444Z,17.10
2023-04-09T07:39:30.884Z,17.98
2023-04-09T07:40:18.142Z,19.60
2023-04-09T07:41:05.228Z,17.77
2023-04-09T07:41:53.116Z,16.15
2023-04-09T07:42:40.865Z,16.73
2023-04-09T07:43:27.795Z,17.30
2023-04-09T07:44:14.925Z,16.65
2023-04-09T07:45:03.696Z,17.42
2023-04-09T07:45:53.715Z,17.12
2023-04-09T07:46:41.824Z,17.52
2023-04-09T07:47:29.025Z,17.23
2023-04-09T07:48:16.914Z,16.73
2023-04-09T07:49:03.815Z,16.77
2023-04-09T07:49:50.780Z,16.37
2023-04-09T07:50:38.528Z,17.25
2023-04-09T07:51:25.975Z,18.33
2023-04-09T07:52:13.051Z,17.02
2023-04-09T07:53:00.341Z,16.67
2023-04-09T07:53:47.762Z,16.35
2023-04-09T07:54:35.694Z,16.42
2023-04-09T07:55:23.127Z,17.30
2023-04-09T07:56:10.277Z,16.73
2023-04-09T07:56:58.088Z,16.80
2023-04-09T07:57:45.523Z,18.12
2023-04-09T07:58:32.577Z,17.58
2023-04-09T07:59:19.614Z,18.30
2023-04-09T08:00:07.617Z,17.90
2023-04-09T08:00:54.794Z,17.35
2023-04-09T08:01:42.540Z,18.83
2023-04-09T08:02:30.157Z,17.90
2023-04-09T08:03:18.099Z,17.23
2023-04-09T08:04:05.794Z,18.42
2023-04-09T08:04:52.968Z,18.40
2023-04-09T08:05:40.559Z,18.15
2023-04-09T08:06:27.909Z,18.37
2023-04-09T08:07:14.827Z,18.67
2023-04-09T08:08:01.929Z,18.70
2023-04-09T08:08:48.843Z,18.20
2023-04-09T08:09:35.767Z,17.33
2023-04-09T08:10:23.111Z,18.00
2023-04-09T08:11:10.089Z,18.55
2023-04-09T08:11:57.528Z,17.75
2023-04-09T08:12:45.095Z,19.00
2023-04-09T08:13:32.126Z,17.55
2023-04-09T08:14:19.095Z,17.98
2023-04-09T08:15:06.801Z,18.67
2023-04-09T08:15:53.887Z,18.08
2023-04-09T08:16:42.962Z,17.23
2023-04-09T08:17:30.199Z,17.08
2023-04-09T08:18:17.311Z,13.93
2023-04-09T08:19:04.498Z,13.27
2023-04-09T08:19:51.473Z,13.10
2023-04-09T08:20:45.404Z,12.32
2023-04-09T08:21:32.632Z,13.70
2023-04-09T08:22:19.675Z,15.18
2023-04-09T08:23:06.657Z,15.90
2023-04-09T08:23:53.729Z,15.98
2023-04-09T08:24:40.845Z,15.93
2023-04-09T08:25:27.839Z,16.10
2023-04-09T08:26:14.840Z,15.50
2023-04-09T08:27:02.276Z,16.02
2023-04-09T08:27:49.227Z,16.95
2023-04-09T08:28:36.272Z,17.58
2023-04-09T08:29:23.316Z,16.90
2023-04-09T08:30:11.423Z,16.98
2023-04-09T08:30:58.687Z,15.85
2023-04-09T08:31:45.829Z,15.95
2023-04-09T08:32:32.922Z,16.60
2023-04-09T08:33:19.957Z,15.23
2023-04-09T08:34:07.468Z,16.67
2023-04-09T08:34:54.359Z,16.27
2023-04-09T08:35:41.838Z,16.30
2023-04-09T08:36:29.174Z,16.48
2023-04-09T08:37:16.905Z,15.65
2023-04-09T08:38:03.819Z,16.67
2023-04-09T08:38:50.936Z,16.35
2023-04-09T08:39:37.904Z,15.40
2023-04-09T08:40:25.135Z,15.88
2023-04-09T08:41:21.468Z,16.05
2023-04-09T08:42:09.118Z,16.08
2023-04-09T08:42:59.488Z,15.68
2023-04-09T08:44:41.237Z,16.90
2023-04-09T08:45:28.330Z,16.65
2023-04-09T08:46:18.914Z,16.42
2023-04-09T08:48:00.914Z,15.82
2023-04-09T08:49:35.840Z,15.25
2023-04-09T08:50:22.789Z,15.52
2023-04-09T08:51:17.358Z,15.98
2023-04-09T08:52:05.651Z,15.95
2023-04-09T08:52:53.791Z,16.60
2023-04-09T08:54:00.084Z,17.00
2023-04-09T08:54:48.761Z,16.85
2023-04-09T08:55:37.546Z,15.77
2023-04-09T08:56:24.925Z,15.43
2023-04-09T08:57:12.227Z,15.70
2023-04-09T08:57:59.388Z,16.15
2023-04-09T08:58:47.332Z,15.80
2023-04-09T08:59:38.130Z,15.98
2023-04-09T09:00:25.122Z,16.02
2023-04-09T09:01:31.240Z,15.93
2023-04-09T09:02:18.237Z,15.88
2023-04-09T09:03:10.531Z,15.93
2023-04-09T09:04:01.618Z,15.15
2023-04-09T09:04:50.133Z,16.08
2023-04-09T09:05:40.838Z,14.75
2023-04-09T09:07:17.051Z,14.93
2023-04-09T09:08:04.190Z,15.15
2023-04-09T09:09:06.483Z,15.43
2023-04-09T09:09:55.199Z,15.00
2023-04-09T09:10:44.693Z,15.73
2023-04-09T09:11:31.797Z,15.27
2023-04-09T09:12:38.973Z,16.17
2023-04-09T09:13:27.676Z,15.77
2023-04-09T09:14:17.141Z,14.57
2023-04-09T09:15:05.047Z,15.57
2023-04-09T09:15:56.893Z,14.90
2023-04-09T09:17:08.794Z,15.43
2023-04-09T09:17:58.490Z,15.88
2023-04-09T09:18:45.778Z,16.87
2023-04-09T09:19:34.047Z,17.73
2023-04-09T09:20:21.786Z,16.85
2023-04-09T09:21:16.863Z,16.48
2023-04-09T09:22:06.609Z,17.30
2023-04-09T09:22:56.364Z,16.52
2023-04-09T09:23:44.025Z,15.68
2023-04-09T09:24:32.973Z,16.62
2023-04-09T09:25:23.936Z,16.95
2023-04-09T09:26:21.729Z,16.17
2023-04-09T09:27:08.806Z,15.68
2023-04-09T09:27:56.143Z,16.62
2023-04-09T09:28:44.062Z,16.98
2023-04-09T09:29:32.115Z,16.90
2023-04-09T09:30:24.176Z,17.15
2023-04-09T09:31:12.880Z,16.85
2023-04-09T09:32:01.114Z,16.80
2023-04-09T09:32:52.445Z,16.85
2023-04-09T09:33:40.450Z,17.10
2023-04-09T09:34:27.615Z,16.87
2023-04-09T09:35:14.658Z,17.35
2023-04-09T09:36:04.030Z,17.05
2023-04-09T09:36:51.384Z,16.92
2023-04-09T09:37:38.586Z,16.92
2023-04-09T09:38:25.879Z,18.08
2023-04-09T09:39:14.352Z,17.33
2023-04-09T09:40:03.193Z,17.98
2023-04-09T09:40:50.513Z,16.20
2023-04-09T09:41:38.337Z,16.23
2023-04-09T09:42:26.556Z,16.30
2023-04-09T09:43:14.877Z,16.62
2023-04-09T09:44:04.737Z,15.73
2023-04-09T09:44:52.018Z,15.70
2023-04-09T09:45:39.505Z,16.30
2023-04-09T09:46:27.461Z,17.02
2023-04-09T09:47:16.000Z,16.08
2023-04-09T09:48:04.382Z,16.10
2023-04-09T09:48:52.026Z,15.75
2023-04-09T09:49:39.765Z,16.12
2023-04-09T09:50:27.479Z,17.15
2023-04-09T09:51:15.868Z,16.85
2023-04-09T09:52:03.711Z,17.30
2023-04-09T09:52:51.425Z,16.95
2023-04-09T09:53:39.137Z,17.20
2023-04-09T09:54:27.397Z,16.23
2023-04-09T09:55:15.797Z,17.20
2023-04-09T09:56:05.729Z,16.58
2023-04-09T09:56:53.315Z,17.75
2023-04-09T09:57:42.923Z,15.68
2023-04-09T09:58:34.567Z,17.37
2023-04-09T09:59:23.491Z,16.85
2023-04-09T10:00:12.811Z,15.77
2023-04-09T10:01:01.388Z,17.02
2023-04-09T10:01:48.938Z,15.75
2023-04-09T10:02:43.406Z,15.48
2023-04-09T10:03:32.424Z,15.05
2023-04-09T10:04:20.970Z,15.52
2023-04-09T10:05:09.715Z,15.20
2023-04-09T10:05:58.862Z,15.95
2023-04-09T10:06:46.446Z,15.18
2023-04-09T10:07:33.537Z,15.30
2023-04-09T10:08:22.410Z,15.68
2023-04-09T10:09:09.566Z,14.82
2023-04-09T10:09:57.887Z,16.33
2023-04-09T10:10:45.325Z,15.38
2023-04-09T10:11:34.322Z,14.82
2023-04-09T10:12:25.676Z,15.18
2023-04-09T10:13:34.794Z,15.23
2023-04-09T10:14:22.756Z,14.65
2023-04-09T10:15:10.062Z,13.32
2023-04-09T10:15:57.931Z,13.50
2023-04-09T10:16:45.203Z,14.20
2023-04-09T10:17:33.091Z,13.23
2023-04-09T10:18:20.392Z,13.68
2023-04-09T10:19:13.589Z,14.10
2023-04-09T10:20:32.954Z,12.93
2023-04-09T10:21:38.812Z,13.55
2023-04-09T10:22:27.502Z,13.10
2023-04-09T10:23:22.485Z,13.62
2023-04-09T10:24:09.796Z,13.75
2023-04-09T10:24:58.234Z,13.68
2023-04-09T10:25:45.360Z,14.10
2023-04-09T10:26:36.595Z,14.25
2023-04-09T10:27:23.616Z,14.95
2023-04-09T10:28:19.759Z,14.70
2023-04-09T10:29:08.564Z,14.35
2023-04-09T10:29:55.592Z,13.70
2023-04-09T10:30:44.019Z,14.60
2023-04-09T10:31:46.526Z,14.90